sensor_id;sensor_type;location;lat;lon;timestamp;P1;durP1;ratioP1;P2;durP2;ratioP2
8500;SDS011;4288;48.484;10.024;2022-12-10T00:02:26;32.17;;;16.57;;
8500;SDS011;4288;48.484;10.024;2022-12-10T00:04:55;35.37;;;17.27;;
8500;SDS011;4288;48.484;10.024;2022-12-10T00:07:22;37.00;;;17.00;;
8500;SDS011;4288;48.484;10.024;2022-12-10T00:09:49;35.50;;;17.47;;
8500;SDS011;4288;48.484;10.024;2022-12-10T00:12:16;29.10;;;14.73;;
8500;SDS011;4288;48.484;10.024;2022-12-10T00:14:44;30.00;;;15.40;;
8500;SDS011;4288;48.484;10.024;2022-12-10T00:17:11;27.40;;;14.23;;
8500;SDS011;4288;48.484;10.024;2022-12-10T00:19:38;34.23;;;16.97;;
8500;SDS011;4288;48.484;10.024;2022-12-10T00:22:06;27.70;;;16.10;;
8500;SDS011;4288;48.484;10.024;2022-12-10T00:24:33;29.17;;;14.73;;
8500;SDS011;4288;48.484;10.024;2022-12-10T00:27:00;26.50;;;14.13;;
8500;SDS011;4288;48.484;10.024;2022-12-10T00:29:27;27.33;;;15.03;;
8500;SDS011;4288;48.484;10.024;2022-12-10T00:31:55;29.10;;;14.93;;
8500;SDS011;4288;48.484;10.024;2022-12-10T00:34:23;32.67;;;15.97;;
8500;SDS011;4288;48.484;10.024;2022-12-10T00:36:50;30.67;;;15.37;;
8500;SDS011;4288;48.484;10.024;2022-12-10T00:39:17;27.93;;;13.90;;
8500;SDS011;4288;48.484;10.024;2022-12-10T00:41:46;27.40;;;15.37;;
8500;SDS011;4288;48.484;10.024;2022-12-10T00:44:14;31.07;;;14.13;;
8500;SDS011;4288;48.484;10.024;2022-12-10T00:46:42;29.50;;;16.00;;
8500;SDS011;4288;48.484;10.024;2022-12-10T00:49:10;22.70;;;11.90;;
8500;SDS011;4288;48.484;10.024;2022-12-10T00:51:37;26.43;;;13.13;;
8500;SDS011;4288;48.484;10.024;2022-12-10T00:54:05;29.47;;;14.00;;
8500;SDS011;4288;48.484;10.024;2022-12-10T00:56:33;27.27;;;14.17;;
8500;SDS011;4288;48.484;10.024;2022-12-10T00:59:00;29.23;;;14.30;;
8500;SDS011;4288;48.484;10.024;2022-12-10T01:01:29;28.80;;;16.07;;
8500;SDS011;4288;48.484;10.024;2022-12-10T01:03:58;26.80;;;14.50;;
8500;SDS011;4288;48.484;10.024;2022-12-10T01:06:33;32.70;;;15.07;;
8500;SDS011;4288;48.484;10.024;2022-12-10T01:09:03;34.80;;;16.37;;
8500;SDS011;4288;48.484;10.024;2022-12-10T01:11:33;35.60;;;14.87;;
8500;SDS011;4288;48.484;10.024;2022-12-10T01:14:03;25.47;;;13.70;;
8500;SDS011;4288;48.484;10.024;2022-12-10T01:16:31;39.10;;;15.30;;
8500;SDS011;4288;48.484;10.024;2022-12-10T01:18:58;31.50;;;14.00;;
8500;SDS011;4288;48.484;10.024;2022-12-10T01:21:26;33.87;;;15.57;;
8500;SDS011;4288;48.484;10.024;2022-12-10T01:23:57;31.70;;;14.23;;
8500;SDS011;4288;48.484;10.024;2022-12-10T01:26:25;29.30;;;14.73;;
8500;SDS011;4288;48.484;10.024;2022-12-10T01:28:55;31.67;;;14.77;;
8500;SDS011;4288;48.484;10.024;2022-12-10T01:31:23;29.00;;;15.20;;
8500;SDS011;4288;48.484;10.024;2022-12-10T01:33:53;29.63;;;14.30;;
8500;SDS011;4288;48.484;10.024;2022-12-10T01:36:21;27.40;;;14.10;;
8500;SDS011;4288;48.484;10.024;2022-12-10T01:38:51;37.53;;;15.77;;
8500;SDS011;4288;48.484;10.024;2022-12-10T01:41:20;30.20;;;15.20;;
8500;SDS011;4288;48.484;10.024;2022-12-10T01:43:54;25.20;;;14.30;;
8500;SDS011;4288;48.484;10.024;2022-12-10T01:46:25;34.50;;;15.47;;
8500;SDS011;4288;48.484;10.024;2022-12-10T01:48:54;30.20;;;15.90;;
8500;SDS011;4288;48.484;10.024;2022-12-10T01:51:26;30.97;;;15.63;;
8500;SDS011;4288;48.484;10.024;2022-12-10T01:53:57;27.00;;;14.17;;
8500;SDS011;4288;48.484;10.024;2022-12-10T01:56:27;29.27;;;14.53;;
8500;SDS011;4288;48.484;10.024;2022-12-10T01:58:55;29.20;;;15.50;;
8500;SDS011;4288;48.484;10.024;2022-12-10T02:01:26;33.77;;;14.73;;
8500;SDS011;4288;48.484;10.024;2022-12-10T02:04:06;27.23;;;14.80;;
8500;SDS011;4288;48.484;10.024;2022-12-10T02:06:45;30.90;;;14.30;;
8500;SDS011;4288;48.484;10.024;2022-12-10T02:09:23;33.53;;;15.90;;
8500;SDS011;4288;48.484;10.024;2022-12-10T02:12:03;29.87;;;15.30;;
8500;SDS011;4288;48.484;10.024;2022-12-10T02:14:38;34.60;;;15.20;;
8500;SDS011;4288;48.484;10.024;2022-12-10T02:17:19;29.70;;;13.80;;
8500;SDS011;4288;48.484;10.024;2022-12-10T02:19:55;32.40;;;14.70;;
8500;SDS011;4288;48.484;10.024;2022-12-10T02:22:44;31.63;;;14.00;;
8500;SDS011;4288;48.484;10.024;2022-12-10T02:25:17;32.97;;;15.47;;
8500;SDS011;4288;48.484;10.024;2022-12-10T02:27:53;23.73;;;13.77;;
8500;SDS011;4288;48.484;10.024;2022-12-10T02:30:29;26.70;;;14.90;;
8500;SDS011;4288;48.484;10.024;2022-12-10T02:32:59;29.87;;;14.47;;
8500;SDS011;4288;48.484;10.024;2022-12-10T02:35:30;28.97;;;14.07;;
8500;SDS011;4288;48.484;10.024;2022-12-10T02:38:01;26.40;;;14.27;;
8500;SDS011;4288;48.484;10.024;2022-12-10T02:40:35;29.23;;;12.87;;
8500;SDS011;4288;48.484;10.024;2022-12-10T02:43:05;29.73;;;14.30;;
8500;SDS011;4288;48.484;10.024;2022-12-10T02:45:35;29.73;;;15.00;;
8500;SDS011;4288;48.484;10.024;2022-12-10T02:48:03;27.43;;;15.17;;
8500;SDS011;4288;48.484;10.024;2022-12-10T02:50:32;31.53;;;15.47;;
8500;SDS011;4288;48.484;10.024;2022-12-10T02:53:00;34.17;;;16.50;;
8500;SDS011;4288;48.484;10.024;2022-12-10T02:55:27;27.50;;;14.10;;
8500;SDS011;4288;48.484;10.024;2022-12-10T02:58:06;27.07;;;14.37;;
8500;SDS011;4288;48.484;10.024;2022-12-10T03:00:50;31.60;;;16.10;;
8500;SDS011;4288;48.484;10.024;2022-12-10T03:03:26;30.53;;;16.37;;
8500;SDS011;4288;48.484;10.024;2022-12-10T03:06:06;24.57;;;13.47;;
8500;SDS011;4288;48.484;10.024;2022-12-10T03:08:39;28.40;;;14.67;;
8500;SDS011;4288;48.484;10.024;2022-12-10T03:11:14;37.77;;;16.60;;
8500;SDS011;4288;48.484;10.024;2022-12-10T03:13:47;27.80;;;14.07;;
8500;SDS011;4288;48.484;10.024;2022-12-10T03:16:22;30.87;;;15.50;;
8500;SDS011;4288;48.484;10.024;2022-12-10T03:18:53;29.57;;;14.90;;
8500;SDS011;4288;48.484;10.024;2022-12-10T03:21:24;27.63;;;13.43;;
8500;SDS011;4288;48.484;10.024;2022-12-10T03:23:55;30.63;;;14.67;;
8500;SDS011;4288;48.484;10.024;2022-12-10T03:26:22;33.27;;;13.93;;
8500;SDS011;4288;48.484;10.024;2022-12-10T03:28:51;28.00;;;13.40;;
8500;SDS011;4288;48.484;10.024;2022-12-10T03:31:25;21.90;;;12.23;;
8500;SDS011;4288;48.484;10.024;2022-12-10T03:33:53;27.20;;;14.20;;
8500;SDS011;4288;48.484;10.024;2022-12-10T03:36:21;29.23;;;14.13;;
8500;SDS011;4288;48.484;10.024;2022-12-10T03:38:50;29.30;;;14.00;;
8500;SDS011;4288;48.484;10.024;2022-12-10T03:41:18;30.67;;;15.40;;
8500;SDS011;4288;48.484;10.024;2022-12-10T03:43:54;33.40;;;13.90;;
8500;SDS011;4288;48.484;10.024;2022-12-10T03:46:25;25.90;;;12.90;;
8500;SDS011;4288;48.484;10.024;2022-12-10T03:48:55;27.23;;;12.80;;
8500;SDS011;4288;48.484;10.024;2022-12-10T03:51:23;28.00;;;13.60;;
8500;SDS011;4288;48.484;10.024;2022-12-10T03:53:51;33.30;;;15.30;;
8500;SDS011;4288;48.484;10.024;2022-12-10T03:56:18;30.07;;;14.90;;
8500;SDS011;4288;48.484;10.024;2022-12-10T03:58:46;28.90;;;14.67;;
8500;SDS011;4288;48.484;10.024;2022-12-10T04:01:14;27.77;;;13.20;;
8500;SDS011;4288;48.484;10.024;2022-12-10T04:03:43;28.07;;;13.40;;
8500;SDS011;4288;48.484;10.024;2022-12-10T04:06:12;23.17;;;13.13;;
8500;SDS011;4288;48.484;10.024;2022-12-10T04:08:41;26.93;;;13.23;;
8500;SDS011;4288;48.484;10.024;2022-12-10T04:11:09;26.03;;;14.60;;
8500;SDS011;4288;48.484;10.024;2022-12-10T04:13:37;25.53;;;14.20;;
8500;SDS011;4288;48.484;10.024;2022-12-10T04:16:23;30.23;;;14.10;;
8500;SDS011;4288;48.484;10.024;2022-12-10T04:18:56;27.73;;;13.90;;
8500;SDS011;4288;48.484;10.024;2022-12-10T04:21:25;24.67;;;13.57;;
8500;SDS011;4288;48.484;10.024;2022-12-10T04:24:11;22.27;;;12.20;;
8500;SDS011;4288;48.484;10.024;2022-12-10T04:26:57;27.77;;;13.50;;
8500;SDS011;4288;48.484;10.024;2022-12-10T04:29:29;28.53;;;14.90;;
8500;SDS011;4288;48.484;10.024;2022-12-10T04:31:56;22.70;;;12.43;;
8500;SDS011;4288;48.484;10.024;2022-12-10T04:34:25;26.40;;;14.50;;
8500;SDS011;4288;48.484;10.024;2022-12-10T04:36:53;26.53;;;14.80;;
8500;SDS011;4288;48.484;10.024;2022-12-10T04:39:20;31.57;;;14.83;;
8500;SDS011;4288;48.484;10.024;2022-12-10T04:41:48;27.73;;;12.33;;
8500;SDS011;4288;48.484;10.024;2022-12-10T04:44:16;27.33;;;13.67;;
8500;SDS011;4288;48.484;10.024;2022-12-10T04:46:44;28.63;;;12.83;;
8500;SDS011;4288;48.484;10.024;2022-12-10T04:49:11;22.77;;;11.80;;
8500;SDS011;4288;48.484;10.024;2022-12-10T04:51:40;22.73;;;14.03;;
8500;SDS011;4288;48.484;10.024;2022-12-10T04:54:08;26.00;;;13.13;;
8500;SDS011;4288;48.484;10.024;2022-12-10T04:56:36;37.60;;;13.53;;
8500;SDS011;4288;48.484;10.024;2022-12-10T04:59:03;39.20;;;15.90;;
8500;SDS011;4288;48.484;10.024;2022-12-10T05:01:31;29.43;;;13.23;;
8500;SDS011;4288;48.484;10.024;2022-12-10T05:04:00;24.70;;;13.40;;
8500;SDS011;4288;48.484;10.024;2022-12-10T05:06:29;27.80;;;14.07;;
8500;SDS011;4288;48.484;10.024;2022-12-10T05:08:58;21.47;;;12.40;;
8500;SDS011;4288;48.484;10.024;2022-12-10T05:11:26;27.53;;;13.30;;
8500;SDS011;4288;48.484;10.024;2022-12-10T05:13:55;23.30;;;13.00;;
8500;SDS011;4288;48.484;10.024;2022-12-10T05:16:24;26.23;;;13.83;;
8500;SDS011;4288;48.484;10.024;2022-12-10T05:18:53;25.03;;;13.87;;
8500;SDS011;4288;48.484;10.024;2022-12-10T05:21:22;25.50;;;12.33;;
8500;SDS011;4288;48.484;10.024;2022-12-10T05:24:12;30.27;;;14.73;;
8500;SDS011;4288;48.484;10.024;2022-12-10T05:26:39;28.33;;;13.47;;
8500;SDS011;4288;48.484;10.024;2022-12-10T05:29:06;30.83;;;14.30;;
8500;SDS011;4288;48.484;10.024;2022-12-10T05:31:34;22.33;;;11.77;;
8500;SDS011;4288;48.484;10.024;2022-12-10T05:34:01;29.50;;;13.53;;
8500;SDS011;4288;48.484;10.024;2022-12-10T05:36:30;23.50;;;12.73;;
8500;SDS011;4288;48.484;10.024;2022-12-10T05:38:57;27.93;;;14.50;;
8500;SDS011;4288;48.484;10.024;2022-12-10T05:41:27;28.10;;;13.43;;
8500;SDS011;4288;48.484;10.024;2022-12-10T05:43:57;23.43;;;13.20;;
8500;SDS011;4288;48.484;10.024;2022-12-10T05:46:26;25.37;;;13.00;;
8500;SDS011;4288;48.484;10.024;2022-12-10T05:48:56;34.40;;;14.67;;
8500;SDS011;4288;48.484;10.024;2022-12-10T05:51:26;28.73;;;13.47;;
8500;SDS011;4288;48.484;10.024;2022-12-10T05:53:56;25.17;;;12.90;;
8500;SDS011;4288;48.484;10.024;2022-12-10T05:56:25;23.50;;;12.93;;
8500;SDS011;4288;48.484;10.024;2022-12-10T05:58:54;26.67;;;14.70;;
8500;SDS011;4288;48.484;10.024;2022-12-10T06:01:25;28.13;;;15.70;;
8500;SDS011;4288;48.484;10.024;2022-12-10T06:03:56;25.23;;;13.07;;
8500;SDS011;4288;48.484;10.024;2022-12-10T06:06:25;30.13;;;14.33;;
8500;SDS011;4288;48.484;10.024;2022-12-10T06:08:55;31.40;;;14.87;;
8500;SDS011;4288;48.484;10.024;2022-12-10T06:11:23;22.37;;;12.27;;
8500;SDS011;4288;48.484;10.024;2022-12-10T06:13:52;29.90;;;14.37;;
8500;SDS011;4288;48.484;10.024;2022-12-10T06:16:20;23.70;;;13.23;;
8500;SDS011;4288;48.484;10.024;2022-12-10T06:18:48;26.57;;;14.13;;
8500;SDS011;4288;48.484;10.024;2022-12-10T06:21:16;22.60;;;12.40;;
8500;SDS011;4288;48.484;10.024;2022-12-10T06:23:44;29.43;;;14.37;;
8500;SDS011;4288;48.484;10.024;2022-12-10T06:26:13;24.57;;;12.93;;
8500;SDS011;4288;48.484;10.024;2022-12-10T06:28:43;25.60;;;14.13;;
8500;SDS011;4288;48.484;10.024;2022-12-10T06:31:13;24.03;;;13.37;;
8500;SDS011;4288;48.484;10.024;2022-12-10T06:33:41;21.07;;;12.10;;
8500;SDS011;4288;48.484;10.024;2022-12-10T06:36:09;26.70;;;14.03;;
8500;SDS011;4288;48.484;10.024;2022-12-10T06:38:39;21.97;;;12.77;;
8500;SDS011;4288;48.484;10.024;2022-12-10T06:41:07;25.03;;;13.27;;
8500;SDS011;4288;48.484;10.024;2022-12-10T06:43:37;23.97;;;13.80;;
8500;SDS011;4288;48.484;10.024;2022-12-10T06:46:05;26.50;;;14.60;;
8500;SDS011;4288;48.484;10.024;2022-12-10T06:48:34;25.33;;;13.40;;
8500;SDS011;4288;48.484;10.024;2022-12-10T06:51:02;30.20;;;14.70;;
8500;SDS011;4288;48.484;10.024;2022-12-10T06:53:30;24.70;;;13.60;;
8500;SDS011;4288;48.484;10.024;2022-12-10T06:55:59;26.00;;;13.10;;
8500;SDS011;4288;48.484;10.024;2022-12-10T06:58:28;24.43;;;12.70;;
8500;SDS011;4288;48.484;10.024;2022-12-10T07:01:01;26.73;;;13.43;;
8500;SDS011;4288;48.484;10.024;2022-12-10T07:03:29;24.70;;;12.37;;
8500;SDS011;4288;48.484;10.024;2022-12-10T07:05:58;24.67;;;12.30;;
8500;SDS011;4288;48.484;10.024;2022-12-10T07:08:26;26.50;;;13.87;;
8500;SDS011;4288;48.484;10.024;2022-12-10T07:10:54;23.40;;;13.47;;
8500;SDS011;4288;48.484;10.024;2022-12-10T07:13:22;26.40;;;14.63;;
8500;SDS011;4288;48.484;10.024;2022-12-10T07:15:49;26.90;;;13.90;;
8500;SDS011;4288;48.484;10.024;2022-12-10T07:18:16;23.60;;;13.67;;
8500;SDS011;4288;48.484;10.024;2022-12-10T07:20:43;30.23;;;13.40;;
8500;SDS011;4288;48.484;10.024;2022-12-10T07:23:12;22.33;;;13.17;;
8500;SDS011;4288;48.484;10.024;2022-12-10T07:25:39;33.40;;;15.03;;
8500;SDS011;4288;48.484;10.024;2022-12-10T07:28:06;31.20;;;15.43;;
8500;SDS011;4288;48.484;10.024;2022-12-10T07:30:33;26.90;;;14.20;;
8500;SDS011;4288;48.484;10.024;2022-12-10T07:33:00;26.40;;;13.20;;
8500;SDS011;4288;48.484;10.024;2022-12-10T07:35:27;23.37;;;12.87;;
8500;SDS011;4288;48.484;10.024;2022-12-10T07:37:54;19.77;;;11.00;;
8500;SDS011;4288;48.484;10.024;2022-12-10T07:40:23;24.70;;;12.67;;
8500;SDS011;4288;48.484;10.024;2022-12-10T07:42:50;24.33;;;11.70;;
8500;SDS011;4288;48.484;10.024;2022-12-10T07:45:17;28.50;;;13.17;;
8500;SDS011;4288;48.484;10.024;2022-12-10T07:47:44;21.40;;;12.27;;
8500;SDS011;4288;48.484;10.024;2022-12-10T07:50:11;25.87;;;12.50;;
8500;SDS011;4288;48.484;10.024;2022-12-10T07:52:39;22.20;;;11.83;;
8500;SDS011;4288;48.484;10.024;2022-12-10T07:55:06;26.37;;;13.27;;
8500;SDS011;4288;48.484;10.024;2022-12-10T07:57:35;19.93;;;12.20;;
8500;SDS011;4288;48.484;10.024;2022-12-10T08:00:02;22.80;;;12.30;;
8500;SDS011;4288;48.484;10.024;2022-12-10T08:02:30;22.63;;;13.00;;
8500;SDS011;4288;48.484;10.024;2022-12-10T08:04:57;20.27;;;11.50;;
8500;SDS011;4288;48.484;10.024;2022-12-10T08:07:24;24.67;;;12.03;;
8500;SDS011;4288;48.484;10.024;2022-12-10T08:09:51;25.40;;;12.23;;
8500;SDS011;4288;48.484;10.024;2022-12-10T08:12:19;17.10;;;10.13;;
8500;SDS011;4288;48.484;10.024;2022-12-10T08:14:47;23.67;;;12.37;;
8500;SDS011;4288;48.484;10.024;2022-12-10T08:17:14;24.83;;;12.30;;
8500;SDS011;4288;48.484;10.024;2022-12-10T08:19:41;24.90;;;13.17;;
8500;SDS011;4288;48.484;10.024;2022-12-10T08:22:08;25.10;;;13.60;;
8500;SDS011;4288;48.484;10.024;2022-12-10T08:24:35;20.90;;;12.00;;
8500;SDS011;4288;48.484;10.024;2022-12-10T08:27:03;21.87;;;11.23;;
8500;SDS011;4288;48.484;10.024;2022-12-10T08:29:30;23.27;;;13.17;;
8500;SDS011;4288;48.484;10.024;2022-12-10T08:31:58;34.03;;;16.10;;
8500;SDS011;4288;48.484;10.024;2022-12-10T08:34:25;26.80;;;14.90;;
8500;SDS011;4288;48.484;10.024;2022-12-10T08:36:52;21.87;;;11.80;;
8500;SDS011;4288;48.484;10.024;2022-12-10T08:39:19;25.33;;;12.10;;
8500;SDS011;4288;48.484;10.024;2022-12-10T08:41:46;23.20;;;11.50;;
8500;SDS011;4288;48.484;10.024;2022-12-10T08:44:14;17.63;;;11.23;;
8500;SDS011;4288;48.484;10.024;2022-12-10T08:46:41;23.00;;;11.03;;
8500;SDS011;4288;48.484;10.024;2022-12-10T08:49:11;23.87;;;12.33;;
8500;SDS011;4288;48.484;10.024;2022-12-10T08:51:38;22.50;;;11.43;;
8500;SDS011;4288;48.484;10.024;2022-12-10T08:54:05;22.87;;;11.40;;
8500;SDS011;4288;48.484;10.024;2022-12-10T08:56:32;21.07;;;11.33;;
8500;SDS011;4288;48.484;10.024;2022-12-10T08:59:00;22.77;;;12.23;;
8500;SDS011;4288;48.484;10.024;2022-12-10T09:01:28;25.97;;;12.00;;
8500;SDS011;4288;48.484;10.024;2022-12-10T09:03:55;27.40;;;11.90;;
8500;SDS011;4288;48.484;10.024;2022-12-10T09:06:23;24.13;;;11.30;;
8500;SDS011;4288;48.484;10.024;2022-12-10T09:08:51;24.50;;;12.13;;
8500;SDS011;4288;48.484;10.024;2022-12-10T09:11:20;18.73;;;10.80;;
8500;SDS011;4288;48.484;10.024;2022-12-10T09:13:50;21.17;;;10.73;;
8500;SDS011;4288;48.484;10.024;2022-12-10T09:16:18;23.17;;;12.77;;
8500;SDS011;4288;48.484;10.024;2022-12-10T09:18:45;20.30;;;11.20;;
8500;SDS011;4288;48.484;10.024;2022-12-10T09:21:13;66.37;;;20.40;;
8500;SDS011;4288;48.484;10.024;2022-12-10T09:23:43;107.77;;;29.33;;
8500;SDS011;4288;48.484;10.024;2022-12-10T09:26:12;77.33;;;25.13;;
8500;SDS011;4288;48.484;10.024;2022-12-10T09:28:41;72.30;;;24.97;;
8500;SDS011;4288;48.484;10.024;2022-12-10T09:31:10;42.10;;;17.40;;
8500;SDS011;4288;48.484;10.024;2022-12-10T09:33:38;21.90;;;11.60;;
8500;SDS011;4288;48.484;10.024;2022-12-10T09:36:08;19.97;;;10.93;;
8500;SDS011;4288;48.484;10.024;2022-12-10T09:38:38;16.40;;;10.07;;
8500;SDS011;4288;48.484;10.024;2022-12-10T09:41:14;18.20;;;9.77;;
8500;SDS011;4288;48.484;10.024;2022-12-10T09:44:08;21.60;;;10.40;;
8500;SDS011;4288;48.484;10.024;2022-12-10T09:46:48;18.57;;;10.73;;
8500;SDS011;4288;48.484;10.024;2022-12-10T09:49:21;19.70;;;9.80;;
8500;SDS011;4288;48.484;10.024;2022-12-10T09:52:00;18.27;;;10.77;;
8500;SDS011;4288;48.484;10.024;2022-12-10T09:54:32;19.60;;;10.87;;
8500;SDS011;4288;48.484;10.024;2022-12-10T09:57:05;17.50;;;8.90;;
8500;SDS011;4288;48.484;10.024;2022-12-10T09:59:42;19.17;;;9.97;;
8500;SDS011;4288;48.484;10.024;2022-12-10T10:02:19;14.90;;;8.50;;
8500;SDS011;4288;48.484;10.024;2022-12-10T10:04:50;16.80;;;9.53;;
8500;SDS011;4288;48.484;10.024;2022-12-10T10:07:23;16.03;;;10.00;;
8500;SDS011;4288;48.484;10.024;2022-12-10T10:09:55;16.43;;;9.30;;
8500;SDS011;4288;48.484;10.024;2022-12-10T10:12:27;21.03;;;9.23;;
8500;SDS011;4288;48.484;10.024;2022-12-10T10:14:56;18.43;;;9.80;;
8500;SDS011;4288;48.484;10.024;2022-12-10T10:17:27;17.90;;;8.07;;
8500;SDS011;4288;48.484;10.024;2022-12-10T10:19:59;20.93;;;9.90;;
8500;SDS011;4288;48.484;10.024;2022-12-10T10:22:26;15.80;;;8.60;;
8500;SDS011;4288;48.484;10.024;2022-12-10T10:24:55;16.80;;;9.60;;
8500;SDS011;4288;48.484;10.024;2022-12-10T10:27:29;14.13;;;8.50;;
8500;SDS011;4288;48.484;10.024;2022-12-10T10:29:59;14.17;;;7.97;;
8500;SDS011;4288;48.484;10.024;2022-12-10T10:32:44;20.93;;;10.20;;
8500;SDS011;4288;48.484;10.024;2022-12-10T10:35:23;16.97;;;8.83;;
8500;SDS011;4288;48.484;10.024;2022-12-10T10:37:57;18.67;;;8.23;;
8500;SDS011;4288;48.484;10.024;2022-12-10T10:40:28;23.60;;;12.30;;
8500;SDS011;4288;48.484;10.024;2022-12-10T10:43:00;23.63;;;9.60;;
8500;SDS011;4288;48.484;10.024;2022-12-10T10:45:30;20.40;;;8.83;;
8500;SDS011;4288;48.484;10.024;2022-12-10T10:48:08;29.67;;;15.53;;
8500;SDS011;4288;48.484;10.024;2022-12-10T10:50:42;37.73;;;16.97;;
8500;SDS011;4288;48.484;10.024;2022-12-10T10:53:21;24.90;;;12.83;;
8500;SDS011;4288;48.484;10.024;2022-12-10T10:56:01;20.20;;;9.63;;
8500;SDS011;4288;48.484;10.024;2022-12-10T10:58:38;15.73;;;9.27;;
8500;SDS011;4288;48.484;10.024;2022-12-10T11:01:17;16.27;;;9.23;;
8500;SDS011;4288;48.484;10.024;2022-12-10T11:03:46;11.67;;;7.60;;
8500;SDS011;4288;48.484;10.024;2022-12-10T11:06:16;13.37;;;7.60;;
8500;SDS011;4288;48.484;10.024;2022-12-10T11:08:44;14.70;;;7.30;;
8500;SDS011;4288;48.484;10.024;2022-12-10T11:11:17;15.80;;;7.90;;
8500;SDS011;4288;48.484;10.024;2022-12-10T11:13:48;19.33;;;9.30;;
8500;SDS011;4288;48.484;10.024;2022-12-10T11:16:17;15.63;;;7.53;;
8500;SDS011;4288;48.484;10.024;2022-12-10T11:18:56;12.73;;;7.23;;
8500;SDS011;4288;48.484;10.024;2022-12-10T11:21:27;15.67;;;8.10;;
8500;SDS011;4288;48.484;10.024;2022-12-10T11:23:56;10.30;;;6.17;;
8500;SDS011;4288;48.484;10.024;2022-12-10T11:26:29;8.93;;;6.03;;
8500;SDS011;4288;48.484;10.024;2022-12-10T11:29:17;16.80;;;8.30;;
8500;SDS011;4288;48.484;10.024;2022-12-10T11:32:01;12.03;;;6.80;;
8500;SDS011;4288;48.484;10.024;2022-12-10T11:34:44;15.50;;;9.63;;
8500;SDS011;4288;48.484;10.024;2022-12-10T11:37:27;17.80;;;8.70;;
8500;SDS011;4288;48.484;10.024;2022-12-10T11:40:03;15.70;;;8.47;;
8500;SDS011;4288;48.484;10.024;2022-12-10T11:42:51;12.53;;;7.40;;
8500;SDS011;4288;48.484;10.024;2022-12-10T11:45:34;15.73;;;7.83;;
8500;SDS011;4288;48.484;10.024;2022-12-10T11:48:16;15.43;;;7.67;;
8500;SDS011;4288;48.484;10.024;2022-12-10T11:50:59;21.00;;;10.93;;
8500;SDS011;4288;48.484;10.024;2022-12-10T11:53:40;13.10;;;7.33;;
8500;SDS011;4288;48.484;10.024;2022-12-10T11:56:26;13.87;;;7.70;;
8500;SDS011;4288;48.484;10.024;2022-12-10T11:58:59;13.20;;;7.00;;
8500;SDS011;4288;48.484;10.024;2022-12-10T12:01:42;18.57;;;8.33;;
8500;SDS011;4288;48.484;10.024;2022-12-10T12:04:25;16.87;;;7.70;;
8500;SDS011;4288;48.484;10.024;2022-12-10T12:07:20;11.43;;;6.53;;
8500;SDS011;4288;48.484;10.024;2022-12-10T12:10:19;11.43;;;6.37;;
8500;SDS011;4288;48.484;10.024;2022-12-10T12:13:20;15.97;;;7.43;;
8500;SDS011;4288;48.484;10.024;2022-12-10T12:15:52;14.73;;;7.37;;
8500;SDS011;4288;48.484;10.024;2022-12-10T12:18:28;13.13;;;7.47;;
8500;SDS011;4288;48.484;10.024;2022-12-10T12:21:07;14.10;;;7.93;;
8500;SDS011;4288;48.484;10.024;2022-12-10T12:23:40;16.83;;;8.90;;
8500;SDS011;4288;48.484;10.024;2022-12-10T12:26:17;13.83;;;8.03;;
8500;SDS011;4288;48.484;10.024;2022-12-10T12:28:53;17.23;;;8.23;;
8500;SDS011;4288;48.484;10.024;2022-12-10T12:31:29;15.30;;;8.50;;
8500;SDS011;4288;48.484;10.024;2022-12-10T12:34:04;14.03;;;9.20;;
8500;SDS011;4288;48.484;10.024;2022-12-10T12:36:42;16.23;;;9.93;;
8500;SDS011;4288;48.484;10.024;2022-12-10T12:39:13;15.60;;;8.80;;
8500;SDS011;4288;48.484;10.024;2022-12-10T12:41:50;19.80;;;9.67;;
8500;SDS011;4288;48.484;10.024;2022-12-10T12:44:27;16.60;;;8.77;;
8500;SDS011;4288;48.484;10.024;2022-12-10T12:47:03;21.13;;;10.90;;
8500;SDS011;4288;48.484;10.024;2022-12-10T12:49:43;21.30;;;9.60;;
8500;SDS011;4288;48.484;10.024;2022-12-10T12:52:16;20.00;;;10.37;;
8500;SDS011;4288;48.484;10.024;2022-12-10T12:54:57;19.47;;;11.37;;
8500;SDS011;4288;48.484;10.024;2022-12-10T12:57:34;19.10;;;9.60;;
8500;SDS011;4288;48.484;10.024;2022-12-10T13:00:11;21.60;;;9.90;;
8500;SDS011;4288;48.484;10.024;2022-12-10T13:02:48;19.33;;;10.00;;
8500;SDS011;4288;48.484;10.024;2022-12-10T13:05:27;18.00;;;10.77;;
8500;SDS011;4288;48.484;10.024;2022-12-10T13:10:56;26.43;;;10.53;;
8500;SDS011;4288;48.484;10.024;2022-12-10T13:13:29;16.53;;;10.03;;
8500;SDS011;4288;48.484;10.024;2022-12-10T13:19:29;22.17;;;11.03;;
8500;SDS011;4288;48.484;10.024;2022-12-10T13:22:00;16.53;;;8.87;;
8500;SDS011;4288;48.484;10.024;2022-12-10T13:24:45;16.50;;;9.17;;
8500;SDS011;4288;48.484;10.024;2022-12-10T13:27:33;14.50;;;8.93;;
8500;SDS011;4288;48.484;10.024;2022-12-10T13:30:03;16.10;;;8.97;;
8500;SDS011;4288;48.484;10.024;2022-12-10T13:33:03;16.20;;;9.10;;
8500;SDS011;4288;48.484;10.024;2022-12-10T13:35:48;15.73;;;9.33;;
8500;SDS011;4288;48.484;10.024;2022-12-10T13:38:24;13.57;;;7.97;;
8500;SDS011;4288;48.484;10.024;2022-12-10T13:40:58;16.20;;;9.63;;
8500;SDS011;4288;48.484;10.024;2022-12-10T13:43:53;15.47;;;9.20;;
8500;SDS011;4288;48.484;10.024;2022-12-10T13:46:52;27.20;;;12.43;;
8500;SDS011;4288;48.484;10.024;2022-12-10T13:49:25;15.43;;;9.40;;
8500;SDS011;4288;48.484;10.024;2022-12-10T13:51:55;15.07;;;9.57;;
8500;SDS011;4288;48.484;10.024;2022-12-10T14:00:46;17.40;;;9.50;;
8500;SDS011;4288;48.484;10.024;2022-12-10T14:03:34;17.13;;;9.53;;
8500;SDS011;4288;48.484;10.024;2022-12-10T14:06:32;17.07;;;10.20;;
8500;SDS011;4288;48.484;10.024;2022-12-10T14:09:03;23.30;;;12.63;;
8500;SDS011;4288;48.484;10.024;2022-12-10T14:11:39;16.37;;;10.57;;
8500;SDS011;4288;48.484;10.024;2022-12-10T14:14:13;19.93;;;10.00;;
8500;SDS011;4288;48.484;10.024;2022-12-10T14:16:49;20.20;;;10.30;;
8500;SDS011;4288;48.484;10.024;2022-12-10T14:19:16;20.73;;;9.87;;
8500;SDS011;4288;48.484;10.024;2022-12-10T14:21:45;20.43;;;11.33;;
8500;SDS011;4288;48.484;10.024;2022-12-10T14:24:26;37.97;;;19.40;;
8500;SDS011;4288;48.484;10.024;2022-12-10T14:26:58;48.83;;;19.97;;
8500;SDS011;4288;48.484;10.024;2022-12-10T14:29:29;32.43;;;14.90;;
8500;SDS011;4288;48.484;10.024;2022-12-10T14:31:57;29.30;;;14.03;;
8500;SDS011;4288;48.484;10.024;2022-12-10T14:34:25;28.20;;;12.90;;
8500;SDS011;4288;48.484;10.024;2022-12-10T14:36:55;19.87;;;11.20;;
8500;SDS011;4288;48.484;10.024;2022-12-10T14:39:27;21.33;;;10.30;;
8500;SDS011;4288;48.484;10.024;2022-12-10T14:41:59;19.20;;;10.37;;
8500;SDS011;4288;48.484;10.024;2022-12-10T14:44:30;20.57;;;11.93;;
8500;SDS011;4288;48.484;10.024;2022-12-10T14:47:05;18.20;;;10.80;;
8500;SDS011;4288;48.484;10.024;2022-12-10T14:49:40;18.70;;;11.30;;
8500;SDS011;4288;48.484;10.024;2022-12-10T14:52:11;22.80;;;10.97;;
8500;SDS011;4288;48.484;10.024;2022-12-10T14:54:41;20.80;;;11.00;;
8500;SDS011;4288;48.484;10.024;2022-12-10T14:57:12;17.80;;;11.37;;
8500;SDS011;4288;48.484;10.024;2022-12-10T14:59:45;19.20;;;10.77;;
8500;SDS011;4288;48.484;10.024;2022-12-10T15:02:17;23.30;;;14.67;;
8500;SDS011;4288;48.484;10.024;2022-12-10T15:04:50;21.57;;;11.07;;
8500;SDS011;4288;48.484;10.024;2022-12-10T15:07:19;20.70;;;11.40;;
8500;SDS011;4288;48.484;10.024;2022-12-10T15:09:49;20.97;;;10.23;;
8500;SDS011;4288;48.484;10.024;2022-12-10T15:12:31;29.93;;;11.03;;
8500;SDS011;4288;48.484;10.024;2022-12-10T15:15:10;19.50;;;10.47;;
8500;SDS011;4288;48.484;10.024;2022-12-10T15:17:42;19.83;;;10.67;;
8500;SDS011;4288;48.484;10.024;2022-12-10T15:20:29;21.40;;;10.37;;